createdAt,value
2023-04-12T00:02:08.527Z,74.32
2023-04-12T00:04:36.281Z,74.60
2023-04-12T00:07:03.826Z,75.99
2023-04-12T00:09:32.448Z,75.48
2023-04-12T00:12:00.035Z,76.07
2023-04-12T00:14:27.391Z,74.39
2023-04-12T00:16:55.142Z,73.89
2023-04-12T00:19:25.834Z,74.17
2023-04-12T00:21:53.165Z,74.96
2023-04-12T00:24:20.535Z,76.74
2023-04-12T00:26:48.181Z,75.28
2023-04-12T00:29:16.170Z,71.86
2023-04-12T00:31:43.590Z,77.17
2023-04-12T00:34:11.416Z,76.27
2023-04-12T00:36:38.743Z,77.21
2023-04-12T00:39:06.303Z,76.47
2023-04-12T00:41:36.210Z,76.42
2023-04-12T00:44:04.756Z,76.81
2023-04-12T00:46:32.678Z,76.51
2023-04-12T00:49:00.601Z,76.53
2023-04-12T00:51:27.976Z,76.61
2023-04-12T00:53:58.128Z,77.44
2023-04-12T00:56:27.873Z,77.33
2023-04-12T00:58:56.741Z,77.08
2023-04-12T01:01:24.273Z,77.81
2023-04-12T01:03:52.449Z,77.00
2023-04-12T01:06:29.801Z,78.57
2023-04-12T01:09:20.649Z,77.53
2023-04-12T01:12:16.169Z,76.56
2023-04-12T01:14:46.901Z,76.70
2023-04-12T01:17:20.912Z,75.18
2023-04-12T01:19:54.082Z,75.63
2023-04-12T01:22:32.783Z,78.34
2023-04-12T01:25:24.009Z,78.15
2023-04-12T01:27:54.391Z,77.46
2023-04-12T01:30:22.134Z,78.23
2023-04-12T01:32:52.612Z,77.64
2023-04-12T01:35:21.438Z,78.22
2023-04-12T01:37:49.101Z,78.86
2023-04-12T01:40:18.157Z,78.46
2023-04-12T01:42:46.179Z,77.35
2023-04-12T01:45:14.188Z,78.29
2023-04-12T01:47:42.706Z,78.54
2023-04-12T01:50:22.723Z,79.24
2023-04-12T01:52:54.149Z,80.06
2023-04-12T01:55:22.142Z,79.62
2023-04-12T01:57:49.783Z,79.23
2023-04-12T02:00:17.735Z,78.58
2023-04-12T02:02:45.457Z,80.32
2023-04-12T02:05:12.910Z,80.06
2023-04-12T02:07:41.001Z,78.23
2023-04-12T02:10:14.017Z,78.47
2023-04-12T02:12:42.076Z,78.36
2023-04-12T02:15:09.700Z,77.31
2023-04-12T02:17:37.769Z,76.72
2023-04-12T02:20:09.650Z,76.19
2023-04-12T02:22:37.088Z,75.69
2023-04-12T02:25:06.446Z,75.19
2023-04-12T02:27:33.795Z,78.28
2023-04-12T02:30:02.064Z,77.70
2023-04-12T02:32:32.884Z,78.08
2023-04-12T02:35:02.877Z,79.92
2023-04-12T02:37:30.920Z,77.02
2023-04-12T02:39:59.053Z,78.93
2023-04-12T02:42:26.606Z,79.15
2023-04-12T02:44:54.231Z,79.96
2023-04-12T02:47:21.815Z,78.98
2023-04-12T02:49:49.417Z,79.43
2023-04-12T02:52:17.795Z,78.44
2023-04-12T02:54:46.226Z,80.29
2023-04-12T02:57:16.130Z,79.28
2023-04-12T02:59:44.027Z,79.69
2023-04-12T03:02:23.202Z,79.58
2023-04-12T03:04:51.558Z,78.10
2023-04-12T03:07:21.649Z,76.04
2023-04-12T03:09:49.793Z,76.47
2023-04-12T03:12:17.714Z,76.84
2023-04-12T03:14:46.209Z,77.45
2023-04-12T03:17:14.213Z,76.68
2023-04-12T03:19:42.302Z,77.66
2023-04-12T03:22:09.990Z,75.31
2023-04-12T03:24:37.695Z,76.69
2023-04-12T03:27:06.982Z,77.16
2023-04-12T03:29:34.609Z,76.05
2023-04-12T03:32:02.753Z,76.49
2023-04-12T03:34:32.480Z,75.74
2023-04-12T03:37:01.480Z,77.75
2023-04-12T03:39:32.613Z,77.90
2023-04-12T03:42:00.307Z,75.99
2023-04-12T03:44:28.069Z,78.22
2023-04-12T03:46:55.954Z,77.62
2023-04-12T03:49:24.332Z,77.67
2023-04-12T03:51:53.235Z,78.78
2023-04-12T03:54:20.713Z,78.37
2023-04-12T03:56:49.661Z,76.75
2023-04-12T03:59:17.868Z,74.96
2023-04-12T04:01:46.188Z,77.73
2023-04-12T04:04:14.311Z,75.83
2023-04-12T04:06:41.994Z,76.39
2023-04-12T04:09:09.664Z,73.08
2023-04-12T04:11:37.799Z,75.62
2023-04-12T04:14:05.465Z,74.57
2023-04-12T04:16:33.191Z,71.01
2023-04-12T04:19:01.071Z,70.71
2023-04-12T04:21:30.560Z,71.99
2023-04-12T04:24:02.360Z,71.20
2023-04-12T04:26:33.468Z,71.35
2023-04-12T04:29:04.987Z,70.26
2023-04-12T04:31:34.659Z,69.76
2023-04-12T04:34:05.262Z,71.50
2023-04-12T04:36:36.941Z,69.40
2023-04-12T04:39:05.248Z,72.36
2023-04-12T04:41:39.555Z,70.25
2023-04-12T04:44:10.600Z,71.33
2023-04-12T04:46:38.762Z,70.18
2023-04-12T04:49:06.341Z,69.70
2023-04-12T04:51:33.974Z,69.08
2023-04-12T04:54:02.296Z,70.10
2023-04-12T04:56:29.916Z,68.49
2023-04-12T04:58:57.574Z,66.01
2023-04-12T05:01:28.606Z,67.20
2023-04-12T05:03:57.097Z,66.08
2023-04-12T05:06:27.335Z,67.37
2023-04-12T05:08:55.188Z,67.73
2023-04-12T05:11:23.148Z,68.38
2023-04-12T05:13:51.127Z,68.30
2023-04-12T05:16:18.652Z,66.72
2023-04-12T05:18:46.132Z,67.84
2023-04-12T05:21:13.762Z,68.80
2023-04-12T05:23:46.291Z,68.33
2023-04-12T05:26:14.005Z,69.17
2023-04-12T05:28:42.060Z,69.25
2023-04-12T05:31:09.925Z,69.50
2023-04-12T05:33:38.350Z,69.25
2023-04-12T05:36:06.098Z,67.26
2023-04-12T05:38:33.553Z,66.76
2023-04-12T05:41:05.003Z,67.17
2023-04-12T05:43:33.517Z,66.45
2023-04-12T05:46:01.221Z,67.46
2023-04-12T05:48:28.871Z,66.78
2023-04-12T05:50:56.468Z,67.31
2023-04-12T05:53:24.128Z,66.07
2023-04-12T05:55:51.846Z,65.76
2023-04-12T05:58:19.335Z,67.13
2023-04-12T06:00:47.282Z,65.26
2023-04-12T06:03:15.142Z,66.60
2023-04-12T06:05:42.669Z,66.07
2023-04-12T06:08:10.347Z,66.54
2023-04-12T06:10:38.072Z,65.78
2023-04-12T06:13:05.587Z,65.56
2023-04-12T06:18:56.098Z,65.79
2023-04-12T06:21:39.454Z,64.34
2023-04-12T06:24:31.706Z,64.47
2023-04-12T06:26:59.858Z,62.73
2023-04-12T06:29:27.756Z,63.89
2023-04-12T06:31:55.416Z,63.67
2023-04-12T06:34:23.114Z,64.62
2023-04-12T06:36:51.157Z,63.87
2023-04-12T06:39:18.531Z,65.43
2023-04-12T06:41:50.823Z,64.63
2023-04-12T06:44:20.642Z,64.59
2023-04-12T06:46:48.312Z,63.69
2023-04-12T06:49:15.949Z,62.92
2023-04-12T06:51:46.443Z,64.01
2023-04-12T06:54:14.318Z,64.11
2023-04-12T06:56:41.783Z,63.56
2023-04-12T06:59:09.396Z,63.94
2023-04-12T07:01:37.020Z,63.51
2023-04-12T07:04:04.544Z,63.00
2023-04-12T07:06:32.846Z,63.50
2023-04-12T07:09:00.633Z,63.05
2023-04-12T07:11:28.686Z,63.41
2023-04-12T07:13:56.226Z,64.00
2023-04-12T07:16:23.983Z,63.18
2023-04-12T07:18:51.436Z,61.59
2023-04-12T07:21:18.829Z,59.34
2023-04-12T07:23:47.596Z,60.12
2023-04-12T07:26:14.998Z,59.87
2023-04-12T07:28:42.443Z,60.33
2023-04-12T07:31:10.098Z,58.29
2023-04-12T07:33:38.844Z,59.71
2023-04-12T07:36:08.348Z,57.84
2023-04-12T07:38:36.159Z,56.63
2023-04-12T07:41:03.630Z,57.18
2023-04-12T07:43:31.133Z,57.68
2023-04-12T07:45:59.145Z,57.70
2023-04-12T07:48:26.690Z,57.01
2023-04-12T07:50:54.144Z,55.62
2023-04-12T07:53:26.203Z,56.51
2023-04-12T07:55:54.618Z,56.97
2023-04-12T07:58:22.953Z,55.44
2023-04-12T08:00:50.562Z,56.18
2023-04-12T08:03:18.519Z,54.31
2023-04-12T08:05:47.243Z,54.24
2023-04-12T08:08:15.492Z,55.54
2023-04-12T08:10:43.220Z,52.33
2023-04-12T08:13:10.625Z,52.85
2023-04-12T08:15:38.006Z,53.30
2023-04-12T08:18:05.838Z,52.82
2023-04-12T08:20:33.330Z,51.40
2023-04-12T08:23:01.393Z,52.36
2023-04-12T08:25:29.029Z,53.17
2023-04-12T08:27:56.432Z,51.36
2023-04-12T08:30:26.879Z,49.61
2023-04-12T08:32:54.742Z,49.57
2023-04-12T08:35:24.998Z,48.09
2023-04-12T08:37:52.357Z,48.11
2023-04-12T08:40:21.843Z,49.08
2023-04-12T08:42:49.542Z,49.33
2023-04-12T08:45:17.302Z,48.39
2023-04-12T08:47:45.058Z,47.83
2023-04-12T08:50:13.807Z,48.08
2023-04-12T08:52:42.707Z,46.36
2023-04-12T08:55:11.171Z,45.76
2023-04-12T08:57:41.118Z,46.40
2023-04-12T09:00:09.495Z,44.82
2023-04-12T09:02:38.045Z,45.18
2023-04-12T09:05:06.761Z,44.68
2023-04-12T09:07:34.709Z,43.77
2023-04-12T09:10:02.442Z,43.09
2023-04-12T09:12:29.851Z,41.14
2023-04-12T09:15:08.479Z,36.95
2023-04-12T09:17:39.130Z,32.91
2023-04-12T09:20:23.789Z,31.59
2023-04-12T09:22:52.860Z,29.28
2023-04-12T09:25:20.598Z,28.15
2023-04-12T09:27:51.981Z,28.15
2023-04-12T09:30:20.284Z,27.49
2023-04-12T09:32:50.773Z,25.92
2023-04-12T09:35:18.779Z,27.60
2023-04-12T09:37:46.558Z,26.13
2023-04-12T09:40:14.189Z,26.42
2023-04-12T09:42:53.848Z,26.08
2023-04-12T09:45:22.846Z,25.83
2023-04-12T09:47:50.409Z,24.68
2023-04-12T09:50:22.878Z,24.02
2023-04-12T09:52:50.753Z,25.20
2023-04-12T09:55:18.314Z,24.71
2023-04-12T09:57:46.370Z,24.14
2023-04-12T10:00:17.705Z,24.76
2023-04-12T10:02:51.964Z,23.95
2023-04-12T10:05:21.734Z,24.80
2023-04-12T10:07:49.892Z,24.50
2023-04-12T10:10:18.297Z,24.74
2023-04-12T10:12:47.034Z,23.91
2023-04-12T10:15:18.230Z,21.92
2023-04-12T10:17:50.835Z,20.77
2023-04-12T10:20:19.598Z,22.70
2023-04-12T10:22:48.099Z,23.05
2023-04-12T10:25:22.722Z,23.35
2023-04-12T10:27:50.595Z,22.44
2023-04-12T10:30:22.399Z,23.40
2023-04-12T10:33:02.251Z,24.89
2023-04-12T10:35:30.498Z,27.96
2023-04-12T10:38:01.292Z,28.48
2023-04-12T10:40:29.487Z,28.50
2023-04-12T10:43:24.760Z,30.89
2023-04-12T10:45:52.461Z,31.14
2023-04-12T10:48:36.681Z,30.48
2023-04-12T10:51:43.446Z,33.28
2023-04-12T10:54:10.849Z,34.75
2023-04-12T10:56:39.754Z,34.48
2023-04-12T10:59:08.547Z,33.41
2023-04-12T11:01:39.256Z,31.20
2023-04-12T11:04:13.839Z,31.17
2023-04-12T11:06:42.400Z,31.72
2023-04-12T11:09:22.267Z,32.97
2023-04-12T11:11:49.998Z,33.28
2023-04-12T11:14:17.756Z,33.36
2023-04-12T11:17:06.847Z,34.25
2023-04-12T11:19:34.789Z,35.49
2023-04-12T11:22:22.351Z,35.54
2023-04-12T11:24:52.243Z,36.27
2023-04-12T11:27:20.783Z,33.89
2023-04-12T11:29:52.771Z,34.75
2023-04-12T11:32:21.315Z,34.10
2023-04-12T11:34:48.817Z,33.16
2023-04-12T11:37:18.564Z,32.17
2023-04-12T11:39:46.399Z,33.66
2023-04-12T11:42:18.267Z,33.90
2023-04-12T11:47:21.400Z,33.49
2023-04-12T11:49:52.790Z,33.69
2023-04-12T11:52:20.563Z,33.80
2023-04-12T11:54:49.474Z,33.30
2023-04-12T11:57:20.344Z,33.69
2023-04-12T11:59:48.696Z,34.98
2023-04-12T12:02:23.241Z,34.61
2023-04-12T12:04:52.466Z,33.63
2023-04-12T12:07:20.167Z,33.23
2023-04-12T12:09:48.129Z,33.82
2023-04-12T12:12:16.179Z,32.34
2023-04-12T12:14:44.419Z,34.59
2023-04-12T12:17:13.458Z,33.96
2023-04-12T12:19:43.461Z,32.77
2023-04-12T12:22:17.466Z,33.16
2023-04-12T12:25:01.202Z,34.23
2023-04-12T12:27:37.396Z,33.89
2023-04-12T12:30:07.417Z,32.53
2023-04-12T12:32:35.525Z,32.77
2023-04-12T12:35:03.547Z,34.10
2023-04-12T12:37:31.352Z,36.09
2023-04-12T12:40:11.711Z,34.51
2023-04-12T12:42:46.359Z,32.85
2023-04-12T12:45:14.085Z,33.29
2023-04-12T12:47:54.803Z,32.44
2023-04-12T12:50:26.601Z,31.96
2023-04-12T12:52:54.669Z,32.29
2023-04-12T12:55:22.444Z,32.19
2023-04-12T12:58:06.563Z,32.81
2023-04-12T13:00:36.574Z,33.26
2023-04-12T13:03:04.459Z,32.96
2023-04-12T13:05:32.271Z,32.50
2023-04-12T13:07:59.898Z,33.34
2023-04-12T13:10:27.517Z,32.75
2023-04-12T13:12:54.870Z,34.03
2023-04-12T13:15:24.126Z,33.51
2023-04-12T13:17:52.605Z,31.92
2023-04-12T13:20:20.281Z,32.20
2023-04-12T13:22:47.935Z,31.63
2023-04-12T13:25:15.545Z,32.12
2023-04-12T13:27:42.896Z,31.77
2023-04-12T13:30:11.077Z,32.60
2023-04-12T13:32:38.482Z,33.49
2023-04-12T13:35:06.545Z,32.04
2023-04-12T13:37:34.315Z,32.36
2023-04-12T13:40:01.668Z,31.85
2023-04-12T13:42:29.063Z,30.90
2023-04-12T13:44:56.994Z,30.70
2023-04-12T13:47:24.379Z,31.99
2023-04-12T13:49:51.784Z,31.03
2023-04-12T13:52:19.390Z,31.57
2023-04-12T13:54:46.738Z,31.52
2023-04-12T13:57:14.078Z,31.11
2023-04-12T13:59:41.790Z,29.98
2023-04-12T14:02:09.268Z,29.55
2023-04-12T14:04:37.107Z,29.46
2023-04-12T14:07:04.427Z,29.57
2023-04-12T14:09:32.097Z,29.63
2023-04-12T14:12:01.477Z,30.90
2023-04-12T14:14:28.904Z,30.53
2023-04-12T14:17:01.846Z,30.49
2023-04-12T14:19:29.681Z,29.26
2023-04-12T14:21:57.010Z,29.49
2023-04-12T14:24:24.404Z,30.41
2023-04-12T14:26:52.003Z,30.33
2023-04-12T14:29:19.339Z,28.22
2023-04-12T14:31:46.867Z,28.21
2023-04-12T14:34:14.531Z,28.31
2023-04-12T14:36:41.912Z,29.13
2023-04-12T14:39:11.655Z,27.99
2023-04-12T14:41:40.665Z,26.83
2023-04-12T14:44:08.015Z,26.35
2023-04-12T14:46:35.683Z,25.53
2023-04-12T14:49:03.371Z,25.09
2023-04-12T14:51:32.079Z,26.53
2023-04-12T14:53:59.680Z,26.96
2023-04-12T14:56:30.433Z,27.13
2023-04-12T14:58:58.788Z,26.49
2023-04-12T15:01:27.131Z,26.19
2023-04-12T15:03:54.937Z,26.03
2023-04-12T15:06:22.956Z,27.58
2023-04-12T15:08:54.981Z,26.76
2023-04-12T15:11:26.596Z,26.63
2023-04-12T15:13:55.094Z,26.65
2023-04-12T15:16:23.388Z,25.78
2023-04-12T15:18:51.316Z,26.49
2023-04-12T15:21:18.770Z,26.81
2023-04-12T15:23:47.246Z,25.65
2023-04-12T15:26:14.704Z,24.77
2023-04-12T15:28:42.302Z,25.69
2023-04-12T15:31:11.813Z,25.18
2023-04-12T15:33:39.297Z,25.78
2023-04-12T15:36:06.975Z,25.35
2023-04-12T15:38:40.809Z,26.11
2023-04-12T15:41:08.183Z,25.32
2023-04-12T15:43:35.925Z,25.14
2023-04-12T15:46:03.488Z,24.23
2023-04-12T15:48:30.979Z,25.55
2023-04-12T15:50:59.051Z,25.42
2023-04-12T15:53:27.292Z,26.30
2023-04-12T15:55:55.122Z,25.83
2023-04-12T15:58:23.461Z,25.26
2023-04-12T16:00:52.897Z,25.55
2023-04-12T16:03:23.314Z,25.90
2023-04-12T16:05:54.361Z,25.64
2023-04-12T16:08:22.658Z,25.95
2023-04-12T16:10:50.606Z,26.61
2023-04-12T16:13:18.410Z,25.14
2023-04-12T16:15:46.873Z,24.97
2023-04-12T16:18:14.348Z,26.62
2023-04-12T16:20:41.835Z,27.38
2023-04-12T16:23:09.510Z,26.44
2023-04-12T16:25:36.878Z,25.62
2023-04-12T16:28:05.188Z,24.76
2023-04-12T16:30:33.836Z,25.77
2023-04-12T16:33:01.350Z,24.54
2023-04-12T16:35:28.861Z,25.06
2023-04-12T16:37:56.502Z,24.78
2023-04-12T16:40:24.554Z,26.70
2023-04-12T16:42:52.029Z,26.41
2023-04-12T16:45:20.860Z,26.83
2023-04-12T16:47:48.285Z,29.15
2023-04-12T16:50:15.678Z,29.27
2023-04-12T16:52:43.298Z,30.47
2023-04-12T16:55:14.164Z,30.01
2023-04-12T16:57:42.016Z,29.42
2023-04-12T17:00:28.963Z,30.62
2023-04-12T17:02:56.561Z,30.96
2023-04-12T17:05:24.789Z,32.78
2023-04-12T17:07:53.998Z,32.71
2023-04-12T17:10:22.466Z,32.54
2023-04-12T17:12:51.911Z,32.70
2023-04-12T17:15:20.991Z,32.23
2023-04-12T17:17:49.948Z,32.41
2023-04-12T17:20:19.209Z,32.22
2023-04-12T17:22:47.014Z,32.33
2023-04-12T17:25:14.369Z,33.46
2023-04-12T17:27:42.465Z,33.99
2023-04-12T17:30:12.425Z,33.18
2023-04-12T17:32:40.356Z,34.65
2023-04-12T17:35:08.405Z,34.39
2023-04-12T17:37:35.934Z,34.04
2023-04-12T17:40:06.168Z,33.68
2023-04-12T17:42:33.820Z,33.39
2023-04-12T17:45:01.164Z,33.87
2023-04-12T17:47:28.553Z,33.55
2023-04-12T17:49:56.451Z,34.13
2023-04-12T17:52:23.823Z,34.69
2023-04-12T17:54:51.776Z,35.15
2023-04-12T17:57:19.412Z,34.82
2023-04-12T17:59:47.199Z,34.99
2023-04-12T18:02:16.954Z,35.05
2023-04-12T18:04:45.213Z,35.45
2023-04-12T18:07:12.892Z,35.90
2023-04-12T18:09:44.711Z,36.02
2023-04-12T18:12:13.060Z,36.90
2023-04-12T18:14:43.837Z,37.09
2023-04-12T18:17:11.190Z,35.58
2023-04-12T18:19:38.831Z,36.12
2023-04-12T18:22:06.229Z,36.39
2023-04-12T18:24:33.929Z,36.16
2023-04-12T18:27:04.277Z,36.51
2023-04-12T18:29:32.782Z,37.20
2023-04-12T18:32:00.289Z,37.15
2023-04-12T18:34:28.181Z,38.09
2023-04-12T18:36:55.738Z,36.41
2023-04-12T18:39:23.078Z,37.43
2023-04-12T18:41:51.295Z,37.45
2023-04-12T18:44:19.865Z,36.82
2023-04-12T18:46:47.288Z,38.25
2023-04-12T18:49:15.405Z,39.75
2023-04-12T18:51:42.903Z,39.64
2023-04-12T18:54:13.722Z,40.65
2023-04-12T18:56:42.397Z,40.83
2023-04-12T18:59:15.878Z,41.09
2023-04-12T19:01:44.393Z,41.19
2023-04-12T19:04:11.898Z,41.10
2023-04-12T19:06:39.421Z,41.16
2023-04-12T19:09:08.262Z,41.32
2023-04-12T19:11:37.108Z,41.83
2023-04-12T19:14:05.170Z,41.57
2023-04-12T19:16:32.838Z,41.69
2023-04-12T19:19:00.435Z,41.50
2023-04-12T19:21:31.601Z,42.13
2023-04-12T19:23:59.661Z,42.56
2023-04-12T19:26:28.189Z,42.79
2023-04-12T19:28:58.245Z,42.52
2023-04-12T19:31:26.207Z,42.76
2023-04-12T19:33:57.261Z,42.94
2023-04-12T19:36:25.002Z,43.13
2023-04-12T19:38:52.620Z,43.62
2023-04-12T19:41:20.793Z,44.10
2023-04-12T19:43:48.258Z,44.09
2023-04-12T19:46:17.351Z,44.06
2023-04-12T19:48:45.440Z,44.17
2023-04-12T19:51:13.334Z,44.15
2023-04-12T19:53:41.923Z,43.91
2023-04-12T19:56:09.748Z,44.06
2023-04-12T19:58:37.314Z,44.21
2023-04-12T20:01:05.129Z,44.77
2023-04-12T20:03:32.914Z,43.99
2023-04-12T20:06:03.921Z,43.77
2023-04-12T20:08:32.180Z,43.64
2023-04-12T20:11:01.013Z,42.82
2023-04-12T20:13:30.667Z,42.94
2023-04-12T20:16:00.694Z,42.66
2023-04-12T20:18:29.582Z,43.35
2023-04-12T20:20:59.907Z,43.77
2023-04-12T20:23:28.091Z,43.89
2023-04-12T20:25:55.611Z,44.08
2023-04-12T20:28:23.440Z,43.94
2023-04-12T20:30:51.171Z,44.91
2023-04-12T20:33:19.897Z,44.63
2023-04-12T20:35:47.312Z,44.20
2023-04-12T20:38:15.167Z,45.01
2023-04-12T20:40:42.509Z,45.18
2023-04-12T20:43:10.507Z,45.42
2023-04-12T20:45:38.214Z,45.48
2023-04-12T20:48:05.778Z,45.12
2023-04-12T20:50:33.193Z,45.77
2023-04-12T20:53:00.781Z,45.81
2023-04-12T20:55:32.523Z,45.94
2023-04-12T20:58:00.775Z,45.85
2023-04-12T21:00:29.592Z,45.41
2023-04-12T21:02:58.285Z,45.80
2023-04-12T21:05:27.280Z,45.93
2023-04-12T21:07:54.917Z,46.19
2023-04-12T21:10:22.304Z,46.29
2023-04-12T21:12:50.080Z,46.30
2023-04-12T21:15:21.963Z,46.37
2023-04-12T21:17:52.275Z,47.26
2023-04-12T21:20:19.997Z,46.93
2023-04-12T21:22:48.132Z,46.92
2023-04-12T21:25:16.990Z,47.05
2023-04-12T21:27:45.704Z,46.48
2023-04-12T21:30:13.643Z,47.03
2023-04-12T21:32:41.956Z,47.19
2023-04-12T21:35:11.054Z,47.40
2023-04-12T21:37:39.158Z,47.89
2023-04-12T21:40:09.246Z,47.35
2023-04-12T21:42:37.070Z,47.68
2023-04-12T21:45:05.332Z,47.60
2023-04-12T21:47:32.801Z,47.83
2023-04-12T21:50:00.690Z,48.28
2023-04-12T21:52:28.055Z,47.63
2023-04-12T21:54:55.782Z,48.00
2023-04-12T21:57:23.413Z,47.73
2023-04-12T21:59:51.008Z,47.98
2023-04-12T22:02:18.461Z,47.83
2023-04-12T22:04:46.713Z,47.58
2023-04-12T22:07:16.842Z,47.49
2023-04-12T22:09:45.009Z,47.67
2023-04-12T22:12:12.865Z,47.57
2023-04-12T22:14:46.412Z,47.79
2023-04-12T22:17:14.736Z,47.80
2023-04-12T22:19:42.308Z,47.54
2023-04-12T22:22:09.794Z,46.94
2023-04-12T22:24:38.663Z,47.79
2023-04-12T22:27:06.930Z,48.09
2023-04-12T22:29:34.374Z,47.79
2023-04-12T22:32:02.406Z,48.14
2023-04-12T22:34:29.792Z,48.26
2023-04-12T22:36:59.969Z,47.67
2023-04-12T22:39:27.681Z,48.33
2023-04-12T22:41:57.353Z,47.77
2023-04-12T22:44:25.416Z,48.08
2023-04-12T22:46:54.584Z,48.45
2023-04-12T22:49:27.241Z,48.40
2023-04-12T22:51:55.298Z,48.50
2023-04-12T22:54:23.594Z,47.53
2023-04-12T22:56:51.599Z,48.42
2023-04-12T22:59:20.004Z,48.09
2023-04-12T23:01:47.525Z,48.16
2023-04-12T23:04:15.766Z,48.11
2023-04-12T23:06:43.702Z,48.22
2023-04-12T23:09:11.748Z,47.72
2023-04-12T23:11:39.966Z,47.17
2023-04-12T23:14:08.028Z,46.61
2023-04-12T23:16:35.658Z,46.77
2023-04-12T23:19:06.366Z,46.61
2023-04-12T23:21:36.035Z,46.88
2023-04-12T23:24:04.380Z,46.87
2023-04-12T23:26:34.520Z,47.00
2023-04-12T23:29:03.894Z,47.06
2023-04-12T23:31:32.268Z,46.86
2023-04-12T23:34:03.085Z,47.00
2023-04-12T23:36:30.736Z,47.22
2023-04-12T23:39:04.527Z,46.72
2023-04-12T23:41:32.324Z,47.08
2023-04-12T23:44:00.280Z,46.89
2023-04-12T23:46:28.133Z,46.86
2023-04-12T23:48:56.132Z,47.10
2023-04-12T23:51:23.516Z,47.05
2023-04-12T23:53:51.052Z,46.84
2023-04-12T23:56:18.751Z,46.55
2023-04-12T23:58:47.111Z,46.57
